Flight Track Log - Related Links

Times and Time Zones

All times are in EDT time to prevent confusion due to time zone crossing. See the SWA1017 flight status page for this flight to view local times or setup timezone preferences in your user account.

Time Position Orientation Groundspeed Altitude Reporting Facility
EDT Latitude Longitude Course Direction KTS MPH feet Rate Location/Type
Thu 03:01:18 PM 26.2419 -97.6606 North 154 177 900  Level Houston Center
Thu 03:02:13 PM 26.2900 -97.6564 North 196 226 3,200 3,133 Climbing Houston Center
Thu 03:02:48 PM 26.3322 -97.6497 North 227 261 5,600 3,738 Climbing Houston Center
Thu 03:03:14 PM 26.3606 -97.6469 North 280 322 7,000 3,871 Climbing Houston Center
Thu 03:03:50 PM 26.4083 -97.6406 North 283 326 9,600 3,918 Climbing Houston Center
Thu 03:04:52 PM 26.5036 -97.6283 North 312 359 13,400 3,726 Climbing Houston Center
Thu 03:05:54 PM 26.5981 -97.6142 North 345 397 17,300 3,290 Climbing Houston Center
Thu 03:06:56 PM 26.6967 -97.6025 North 359 413 20,200 2,855 Climbing Houston Center
Thu 03:07:58 PM 26.8136 -97.5861 North 391 450 23,200 3,048 Climbing Houston Center
Thu 03:09:00 PM 26.9258 -97.5725 North 400 460 26,500 2,806 Climbing Houston Center
Thu 03:10:02 PM 27.0431 -97.5708 North 390 449 29,000 2,081 Climbing Houston Center
Thu 03:11:04 PM 27.1472 -97.6081 342° North 421 484 30,800 2,129 Climbing Houston Center
Thu 03:12:06 PM 27.2567 -97.6442 344° North 411 473 33,400 2,468 Climbing Houston Center
Thu 03:13:08 PM 27.3875 -97.6892 343° North 413 475 35,900 1,258 Climbing Houston Center
Thu 03:14:10 PM 27.4981 -97.7261 343° North 414 476 36,000 48 Climbing Houston Center
Thu 03:15:12 PM 27.6114 -97.7633 344° North 421 484 36,000  Level Houston Center
Thu 03:16:15 PM 27.7217 -97.8008 343° North 418 481 36,000  Level Houston Center
Thu 03:17:17 PM 27.8336 -97.8378 344° North 420 483 36,000  Level Houston Center
Thu 03:18:19 PM 27.9667 -97.8844 343° North 418 481 36,000  Level Houston Center
Thu 03:19:21 PM 28.0761 -97.9200 344° North 413 475 36,000  Level Houston Center
Thu 03:20:23 PM 28.1839 -97.9567 343° North 408 470 36,000  Level Houston Center
Thu 03:21:25 PM 28.2831 -97.9900 344° North 403 464 36,000  Level Houston Center
Thu 03:22:27 PM 28.4114 -98.0344 343° North 401 461 36,000  Level Houston Center
Thu 03:23:29 PM 28.5189 -98.0708 343° North 401 461 36,000  Level Houston Center
Thu 03:24:31 PM 28.6275 -98.1083 343° North 405 466 36,000  Level Houston Center
Thu 03:25:33 PM 28.7492 -98.1517 343° North 412 474 36,000  Level Houston Center
Thu 03:26:35 PM 28.8597 -98.1894 343° North 413 475 36,000  Level Houston Center
Thu 03:27:37 PM 28.9786 -98.2297 343° North 412 474 36,000  Level Houston Center
Thu 03:28:39 PM 29.0889 -98.2686 343° North 413 475 36,000 -532 Level Houston Center
Thu 03:29:41 PM 29.2083 -98.3097 343° North 416 479 34,900 -2,323 Descending Houston Center
Thu 03:30:43 PM 29.3222 -98.3492 343° North 425 489 31,200 -3,823 Descending Houston Center
Thu 03:31:45 PM 29.4508 -98.3928 344° North 446 513 27,000 -2,710 Descending Houston Center
Thu 03:32:47 PM 29.5522 -98.4275 343° North 440 506 25,600 -1,355 Descending Houston Center
Thu 03:33:49 PM 29.6694 -98.4447 353° North 379 436 24,200 -1,548 Descending Houston Center
Thu 03:34:51 PM 29.7661 -98.4200 13° North 358 412 22,400 -1,694 Descending Houston Center
Thu 03:35:53 PM 29.8686 -98.3994 10° North 346 398 20,700 -1,694 Descending Houston Center
Thu 03:36:55 PM 29.9597 -98.3814 10° North 331 381 18,900 -1,500 Descending Houston Center
Thu 03:37:57 PM 30.0478 -98.3614 11° North 322 371 17,600 -1,161 Descending Houston Center
Thu 03:38:59 PM 30.1356 -98.3397 12° North 296 341 16,500 -1,452 Descending Houston Center
Thu 03:40:01 PM 30.2156 -98.3214 11° North 293 337 14,600 -2,419 Descending Houston Center
Thu 03:41:03 PM 30.3083 -98.2983 12° North 321 369 11,500 -1,887 Descending Houston Center
Thu 03:42:05 PM 30.3339 -98.2144 71° East 326 375 10,700 -1,161 Descending Houston Center
Thu 03:43:07 PM 30.3125 -98.1094 103° East 309 356 9,100 -1,500 Descending Houston Center
Thu 03:44:09 PM 30.2550 -98.0261 129° Southeast 308 354 7,600 -1,065 Descending Houston Center
Thu 03:45:11 PM 30.2081 -97.9572 128° Southeast 280 322 6,900 -1,016 Descending Houston Center
Thu 03:46:13 PM 30.1603 -97.8853 128° Southeast 265 305 5,500 -1,355 Descending Houston Center
Thu 03:47:15 PM 30.1189 -97.8217 127° Southeast 271 312 4,100 -1,403 Descending Houston Center
Thu 03:48:17 PM 30.0656 -97.7453 129° Southeast 274 315 2,600 -816 Descending Houston Center
Thu 03:49:20 PM 30.0769 -97.6814 78° East 235 270 2,400 -480 Descending Houston Center
Thu 03:50:22 PM 30.1231 -97.6772 North 163 188 1,600 -435 Descending Houston Center
Thu 03:51:24 PM 30.1583 -97.6769 360° North 157 181 1,500 -97 Descending Houston Center
Thu 03:53:00 PM 30.1945 -97.6699 33° Northeast  Level Estimated
Thu 04:00:00 PM 30.1945 -97.6699 221° Southwest  Level Estimated

Login

Don't have an account? Register now (free) for customized features, flight alerts, and more!